Dawson Creek Airport
CYDQ : now visible

Airfield :











YOU CAN JOIN US ON...

 
LOGIN :

Register | Disclaimer

   EN    FR    IT 

 









Legend :    VFR   Marginal VFR   IFR   Intensive IFR   Very Intensive IFR
Visi :
Ceiling :
>= 8 km
>= 3000ft
5 to 8 km
1000 to 3000 ft
1500m to 5 km
500 to 1000 ft
800 to 1500m
200 to 500 ft
< 800m
< 200 ft
Symbols :   Thunderstorms  Fog  Heavy snow  Heavy precipitations  Wind > 20 kt






- Airport Elevation : 2148 ft
- IATA code : YDQ


CYDQ - Dawson Creek

CURRENT METAR :
  • 142200Z AUTO 27017KT 9SM FEW080 22/08 A2991 RMK SLP134 DENSITY ALT 3400FT

EXPIRED METARs :
  • 142100Z AUTO 27008G16KT 230V290 9SM FEW085 22/07 A2992 RMK SLP138 DENSITY ALT 3400FT
  • 142000Z AUTO 29010G17KT 260V320 9SM CLR 21/08 A2993 RMK SLP144 DENSITY ALT 3300FT

TAF TAF CYDQ
Valid from the 14 at 19:00 until the 15 at 05:00 UTC


141838Z 1419/1505 27012G22KT P6SM SCT090
TEMPO 1419/1421 BKN070
FM150300 26012KT P6SM BKN120
TEMPO 1503/1505 P6SM -SHRA OVC070 RMK FCST BASED ON AUTO OBS. NXT FCST BY 150100Z
CZEG FIR / North America



MET'MAP, your aeronautical weather chart ! - Copyright ORBIFLY December 2007 - Disclaimer

ORBIFLY MET'MAP TEAM :

Programming & Development : Alexandra Zaïnal
Concept & original design : Baudouin d'Aumeries
Assistance for programming : Marc-Olivier Méhu
Technical & hardware support : Manuel Goepfert

Contact : metmap@orbifly.com




SOURCES & CREDITS :

   NOAA       Earth
Advisory